sensor_id;sensor_type;location;lat;lon;timestamp;pressure;altitude;pressure_sealevel;temperature;humidity
28167;BME280;15455;53.376;-6.262;2023-09-19T00:01:20;99929.22;;;10.82;100.00
28167;BME280;15455;53.376;-6.262;2023-09-19T00:04:07;99916.13;;;10.84;100.00
28167;BME280;15455;53.376;-6.262;2023-09-19T00:06:56;99918.69;;;10.87;100.00
28167;BME280;15455;53.376;-6.262;2023-09-19T00:09:41;99923.88;;;10.88;100.00
28167;BME280;15455;53.376;-6.262;2023-09-19T00:12:29;99919.50;;;10.89;100.00
28167;BME280;15455;53.376;-6.262;2023-09-19T00:15:14;99921.34;;;10.85;100.00
28167;BME280;15455;53.376;-6.262;2023-09-19T00:18:03;99923.13;;;10.80;100.00
28167;BME280;15455;53.376;-6.262;2023-09-19T00:20:52;99917.06;;;10.80;100.00
28167;BME280;15455;53.376;-6.262;2023-09-19T00:23:38;99917.13;;;10.76;100.00
28167;BME280;15455;53.376;-6.262;2023-09-19T00:26:26;99921.47;;;10.76;100.00
28167;BME280;15455;53.376;-6.262;2023-09-19T00:29:15;99910.19;;;10.75;100.00
28167;BME280;15455;53.376;-6.262;2023-09-19T00:32:02;99903.22;;;10.74;100.00
28167;BME280;15455;53.376;-6.262;2023-09-19T00:34:48;99915.44;;;10.72;100.00
28167;BME280;15455;53.376;-6.262;2023-09-19T00:37:34;99918.94;;;10.71;100.00
28167;BME280;15455;53.376;-6.262;2023-09-19T00:40:20;99924.22;;;10.68;100.00
28167;BME280;15455;53.376;-6.262;2023-09-19T00:43:07;99918.16;;;10.68;100.00
28167;BME280;15455;53.376;-6.262;2023-09-19T00:45:55;99924.22;;;10.68;100.00
28167;BME280;15455;53.376;-6.262;2023-09-19T00:48:41;99915.59;;;10.65;100.00
28167;BME280;15455;53.376;-6.262;2023-09-19T00:51:29;99930.38;;;10.64;100.00
28167;BME280;15455;53.376;-6.262;2023-09-19T00:54:16;99924.31;;;10.62;100.00
28167;BME280;15455;53.376;-6.262;2023-09-19T00:57:03;99927.81;;;10.61;100.00
28167;BME280;15455;53.376;-6.262;2023-09-19T00:59:50;99926.97;;;10.59;100.00
28167;BME280;15455;53.376;-6.262;2023-09-19T01:02:38;99925.28;;;10.56;100.00
28167;BME280;15455;53.376;-6.262;2023-09-19T01:05:24;99925.28;;;10.56;100.00
28167;BME280;15455;53.376;-6.262;2023-09-19T01:08:10;99926.16;;;10.55;100.00
28167;BME280;15455;53.376;-6.262;2023-09-19T01:11:03;99918.31;;;10.55;100.00
28167;BME280;15455;53.376;-6.262;2023-09-19T01:20:19;99900.97;;;10.53;100.00
28167;BME280;15455;53.376;-6.262;2023-09-19T01:29:34;99873.19;;;10.52;100.00
28167;BME280;15455;53.376;-6.262;2023-09-19T01:32:25;99873.19;;;10.52;100.00
28167;BME280;15455;53.376;-6.262;2023-09-19T01:35:11;99859.22;;;10.54;100.00
28167;BME280;15455;53.376;-6.262;2023-09-19T01:37:58;99866.16;;;10.55;100.00
28167;BME280;15455;53.376;-6.262;2023-09-19T01:40:52;99847.91;;;10.54;100.00
28167;BME280;15455;53.376;-6.262;2023-09-19T01:43:42;99838.34;;;10.54;100.00
28167;BME280;15455;53.376;-6.262;2023-09-19T01:46:34;99839.19;;;10.56;100.00
28167;BME280;15455;53.376;-6.262;2023-09-19T01:52:23;99830.53;;;10.54;100.00
28167;BME280;15455;53.376;-6.262;2023-09-19T01:55:14;99812.25;;;10.56;100.00
28167;BME280;15455;53.376;-6.262;2023-09-19T01:58:16;99801.78;;;10.57;100.00
28167;BME280;15455;53.376;-6.262;2023-09-19T02:01:04;99789.56;;;10.58;100.00
28167;BME280;15455;53.376;-6.262;2023-09-19T02:03:51;99792.13;;;10.61;100.00
28167;BME280;15455;53.376;-6.262;2023-09-19T02:06:41;99779.94;;;10.62;100.00
28167;BME280;15455;53.376;-6.262;2023-09-19T02:09:27;99785.13;;;10.65;100.00
28167;BME280;15455;53.376;-6.262;2023-09-19T02:12:12;99783.31;;;10.67;100.00
28167;BME280;15455;53.376;-6.262;2023-09-19T02:14:58;99778.94;;;10.69;100.00
28167;BME280;15455;53.376;-6.262;2023-09-19T02:17:44;99770.22;;;10.70;100.00
28167;BME280;15455;53.376;-6.262;2023-09-19T02:20:31;99765.00;;;10.70;100.00
28167;BME280;15455;53.376;-6.262;2023-09-19T02:23:18;99754.53;;;10.71;100.00
28167;BME280;15455;53.376;-6.262;2023-09-19T02:26:04;99742.31;;;10.73;100.00
28167;BME280;15455;53.376;-6.262;2023-09-19T02:28:50;99737.03;;;10.76;100.00
28167;BME280;15455;53.376;-6.262;2023-09-19T02:31:36;99727.38;;;10.80;100.00
28167;BME280;15455;53.376;-6.262;2023-09-19T02:34:22;99722.09;;;10.83;100.00
28167;BME280;15455;53.376;-6.262;2023-09-19T02:37:08;99709.03;;;10.86;100.00
28167;BME280;15455;53.376;-6.262;2023-09-19T02:39:58;99695.94;;;10.88;100.00
28167;BME280;15455;53.376;-6.262;2023-09-19T02:42:48;99695.88;;;10.91;100.00
28167;BME280;15455;53.376;-6.262;2023-09-19T02:45:35;99688.00;;;10.92;100.00
28167;BME280;15455;53.376;-6.262;2023-09-19T02:48:21;99676.63;;;10.95;100.00
28167;BME280;15455;53.376;-6.262;2023-09-19T02:51:06;99664.44;;;10.95;100.00
28167;BME280;15455;53.376;-6.262;2023-09-19T02:53:52;99652.19;;;10.98;100.00
28167;BME280;15455;53.376;-6.262;2023-09-19T02:56:38;99648.66;;;11.00;100.00
28167;BME280;15455;53.376;-6.262;2023-09-19T02:59:23;99635.50;;;11.05;100.00
28167;BME280;15455;53.376;-6.262;2023-09-19T03:02:10;99625.00;;;11.08;100.00
28167;BME280;15455;53.376;-6.262;2023-09-19T03:04:55;99612.72;;;11.11;100.00
28167;BME280;15455;53.376;-6.262;2023-09-19T03:07:42;99607.44;;;11.15;100.00
28167;BME280;15455;53.376;-6.262;2023-09-19T03:10:32;99603.06;;;11.17;100.00
28167;BME280;15455;53.376;-6.262;2023-09-19T03:13:17;99582.09;;;11.20;100.00
28167;BME280;15455;53.376;-6.262;2023-09-19T03:16:06;99574.22;;;11.21;100.00
28167;BME280;15455;53.376;-6.262;2023-09-19T03:18:52;99562.88;;;11.22;100.00
28167;BME280;15455;53.376;-6.262;2023-09-19T03:21:40;99557.66;;;11.22;100.00
28167;BME280;15455;53.376;-6.262;2023-09-19T03:24:26;99546.25;;;11.25;100.00
28167;BME280;15455;53.376;-6.262;2023-09-19T03:27:12;99530.56;;;11.25;100.00
28167;BME280;15455;53.376;-6.262;2023-09-19T03:30:01;99519.19;;;11.27;100.00
28167;BME280;15455;53.376;-6.262;2023-09-19T03:32:51;99494.81;;;11.28;100.00
28167;BME280;15455;53.376;-6.262;2023-09-19T03:35:39;99485.09;;;11.34;100.00
28167;BME280;15455;53.376;-6.262;2023-09-19T03:38:25;99472.91;;;11.34;100.00
28167;BME280;15455;53.376;-6.262;2023-09-19T03:41:11;99456.28;;;11.37;100.00
28167;BME280;15455;53.376;-6.262;2023-09-19T03:44:00;99444.03;;;11.39;100.00
28167;BME280;15455;53.376;-6.262;2023-09-19T03:46:45;99434.34;;;11.42;100.00
28167;BME280;15455;53.376;-6.262;2023-09-19T03:49:31;99434.25;;;11.47;100.00
28167;BME280;15455;53.376;-6.262;2023-09-19T03:52:17;99421.97;;;11.49;100.00
28167;BME280;15455;53.376;-6.262;2023-09-19T03:55:03;99418.34;;;11.55;100.00
28167;BME280;15455;53.376;-6.262;2023-09-19T03:57:49;99405.19;;;11.58;100.00
28167;BME280;15455;53.376;-6.262;2023-09-19T04:00:35;99390.25;;;11.63;100.00
28167;BME280;15455;53.376;-6.262;2023-09-19T04:03:24;99384.88;;;11.68;100.00
28167;BME280;15455;53.376;-6.262;2023-09-19T04:06:20;99375.91;;;11.76;100.00
28167;BME280;15455;53.376;-6.262;2023-09-19T04:09:06;99359.19;;;11.82;100.00
28167;BME280;15455;53.376;-6.262;2023-09-19T04:11:52;99349.31;;;11.92;100.00
28167;BME280;15455;53.376;-6.262;2023-09-19T04:14:37;99349.22;;;11.96;100.00
28167;BME280;15455;53.376;-6.262;2023-09-19T04:17:24;99340.38;;;12.01;100.00
28167;BME280;15455;53.376;-6.262;2023-09-19T04:20:10;99330.47;;;12.10;100.00
28167;BME280;15455;53.376;-6.262;2023-09-19T04:22:57;99310.16;;;12.19;100.00
28167;BME280;15455;53.376;-6.262;2023-09-19T04:25:43;99308.34;;;12.21;100.00
28167;BME280;15455;53.376;-6.262;2023-09-19T04:28:29;99301.31;;;12.23;100.00
28167;BME280;15455;53.376;-6.262;2023-09-19T04:31:14;99272.13;;;12.35;100.00
28167;BME280;15455;53.376;-6.262;2023-09-19T04:34:01;99272.81;;;12.40;100.00
28167;BME280;15455;53.376;-6.262;2023-09-19T04:36:50;99262.13;;;12.48;100.00
28167;BME280;15455;53.376;-6.262;2023-09-19T04:39:36;99257.66;;;12.50;100.00
28167;BME280;15455;53.376;-6.262;2023-09-19T04:42:21;99252.28;;;12.55;100.00
28167;BME280;15455;53.376;-6.262;2023-09-19T04:45:07;99231.03;;;12.64;100.00
28167;BME280;15455;53.376;-6.262;2023-09-19T04:47:55;99225.56;;;12.70;100.00
28167;BME280;15455;53.376;-6.262;2023-09-19T04:50:41;99222.78;;;12.75;100.00
28167;BME280;15455;53.376;-6.262;2023-09-19T04:53:26;99220.84;;;12.80;100.00
28167;BME280;15455;53.376;-6.262;2023-09-19T04:56:13;99228.44;;;12.88;100.00
28167;BME280;15455;53.376;-6.262;2023-09-19T04:58:59;99201.09;;;12.95;100.00
28167;BME280;15455;53.376;-6.262;2023-09-19T05:01:45;99214.03;;;12.99;100.00
28167;BME280;15455;53.376;-6.262;2023-09-19T05:04:32;99213.06;;;13.02;100.00
28167;BME280;15455;53.376;-6.262;2023-09-19T05:07:17;99200.53;;;13.10;100.00
28167;BME280;15455;53.376;-6.262;2023-09-19T05:10:03;99196.91;;;13.13;100.00
28167;BME280;15455;53.376;-6.262;2023-09-19T05:12:53;99189.69;;;13.19;100.00
28167;BME280;15455;53.376;-6.262;2023-09-19T05:15:38;99189.41;;;13.27;100.00
28167;BME280;15455;53.376;-6.262;2023-09-19T05:18:24;99187.41;;;13.34;100.00
28167;BME280;15455;53.376;-6.262;2023-09-19T05:21:11;99178.34;;;13.43;100.00
28167;BME280;15455;53.376;-6.262;2023-09-19T05:23:57;99167.56;;;13.50;100.00
28167;BME280;15455;53.376;-6.262;2023-09-19T05:26:43;99172.56;;;13.57;100.00
28167;BME280;15455;53.376;-6.262;2023-09-19T05:29:29;99167.84;;;13.65;100.00
28167;BME280;15455;53.376;-6.262;2023-09-19T05:32:14;99155.09;;;13.78;100.00
28167;BME280;15455;53.376;-6.262;2023-09-19T05:35:01;99154.00;;;13.83;100.00
28167;BME280;15455;53.376;-6.262;2023-09-19T05:37:47;99145.16;;;13.86;100.00
28167;BME280;15455;53.376;-6.262;2023-09-19T05:40:36;99146.47;;;13.96;100.00
28167;BME280;15455;53.376;-6.262;2023-09-19T05:43:22;99140.94;;;14.02;100.00
28167;BME280;15455;53.376;-6.262;2023-09-19T05:46:07;99121.69;;;14.03;100.00
28167;BME280;15455;53.376;-6.262;2023-09-19T05:48:53;99117.81;;;14.12;100.00
28167;BME280;15455;53.376;-6.262;2023-09-19T05:51:38;99104.53;;;14.15;100.00
28167;BME280;15455;53.376;-6.262;2023-09-19T05:54:24;99098.97;;;14.23;100.00
28167;BME280;15455;53.376;-6.262;2023-09-19T05:57:09;99090.31;;;14.21;100.00
28167;BME280;15455;53.376;-6.262;2023-09-19T05:59:58;99085.13;;;14.19;100.00
28167;BME280;15455;53.376;-6.262;2023-09-19T06:02:43;99104.38;;;14.20;100.00
28167;BME280;15455;53.376;-6.262;2023-09-19T06:05:30;99112.94;;;14.23;100.00
28167;BME280;15455;53.376;-6.262;2023-09-19T06:08:17;99099.63;;;14.28;100.00
28167;BME280;15455;53.376;-6.262;2023-09-19T06:11:02;99108.16;;;14.33;100.00
28167;BME280;15455;53.376;-6.262;2023-09-19T06:13:48;99097.38;;;14.39;100.00
28167;BME280;15455;53.376;-6.262;2023-09-19T06:16:34;99092.06;;;14.41;100.00
28167;BME280;15455;53.376;-6.262;2023-09-19T06:19:20;99097.88;;;14.48;100.00
28167;BME280;15455;53.376;-6.262;2023-09-19T06:22:08;99100.16;;;14.55;100.00
28167;BME280;15455;53.376;-6.262;2023-09-19T06:24:54;99092.13;;;14.58;100.00
28167;BME280;15455;53.376;-6.262;2023-09-19T06:27:39;99091.22;;;14.59;100.00
28167;BME280;15455;53.376;-6.262;2023-09-19T06:30:28;99078.38;;;14.53;100.00
28167;BME280;15455;53.376;-6.262;2023-09-19T06:33:15;99090.56;;;14.54;100.00
28167;BME280;15455;53.376;-6.262;2023-09-19T06:36:04;99099.25;;;14.56;100.00
28167;BME280;15455;53.376;-6.262;2023-09-19T06:38:50;99092.13;;;14.58;100.00
28167;BME280;15455;53.376;-6.262;2023-09-19T06:41:37;99093.78;;;14.61;100.00
28167;BME280;15455;53.376;-6.262;2023-09-19T06:44:27;99098.16;;;14.62;100.00
28167;BME280;15455;53.376;-6.262;2023-09-19T06:47:15;99098.06;;;14.64;100.00
28167;BME280;15455;53.376;-6.262;2023-09-19T06:50:01;99093.59;;;14.66;100.00
28167;BME280;15455;53.376;-6.262;2023-09-19T06:52:48;99093.41;;;14.70;100.00
28167;BME280;15455;53.376;-6.262;2023-09-19T06:55:35;99111.56;;;14.75;100.00
28167;BME280;15455;53.376;-6.262;2023-09-19T06:58:21;99109.56;;;14.80;100.00
28167;BME280;15455;53.376;-6.262;2023-09-19T07:01:07;99112.03;;;14.83;100.00
28167;BME280;15455;53.376;-6.262;2023-09-19T07:03:52;99109.22;;;14.88;100.00
28167;BME280;15455;53.376;-6.262;2023-09-19T07:06:38;99125.81;;;14.88;100.00
28167;BME280;15455;53.376;-6.262;2023-09-19T07:09:25;99122.34;;;14.88;100.00
28167;BME280;15455;53.376;-6.262;2023-09-19T07:12:12;99131.22;;;14.85;100.00
28167;BME280;15455;53.376;-6.262;2023-09-19T07:14:58;99133.84;;;14.85;100.00
28167;BME280;15455;53.376;-6.262;2023-09-19T07:17:45;99144.22;;;14.88;100.00
28167;BME280;15455;53.376;-6.262;2023-09-19T07:20:32;99149.25;;;14.93;100.00
28167;BME280;15455;53.376;-6.262;2023-09-19T07:23:19;99148.94;;;14.99;100.00
28167;BME280;15455;53.376;-6.262;2023-09-19T07:26:07;99176.72;;;15.05;100.00
28167;BME280;15455;53.376;-6.262;2023-09-19T07:28:52;99179.09;;;15.11;100.00
28167;BME280;15455;53.376;-6.262;2023-09-19T07:31:38;99161.31;;;15.16;100.00
28167;BME280;15455;53.376;-6.262;2023-09-19T07:34:24;99173.38;;;15.20;100.00
28167;BME280;15455;53.376;-6.262;2023-09-19T07:37:09;99171.41;;;15.25;100.00
28167;BME280;15455;53.376;-6.262;2023-09-19T07:39:56;99177.34;;;15.29;100.00
28167;BME280;15455;53.376;-6.262;2023-09-19T07:42:42;99164.88;;;15.34;100.00
28167;BME280;15455;53.376;-6.262;2023-09-19T07:45:32;99172.59;;;15.37;100.00
28167;BME280;15455;53.376;-6.262;2023-09-19T07:48:18;99173.44;;;15.38;100.00
28167;BME280;15455;53.376;-6.262;2023-09-19T07:51:05;99190.94;;;15.39;100.00
28167;BME280;15455;53.376;-6.262;2023-09-19T07:53:51;99194.16;;;15.44;100.00
28167;BME280;15455;53.376;-6.262;2023-09-19T07:56:38;99188.78;;;15.47;100.00
28167;BME280;15455;53.376;-6.262;2023-09-19T07:59:24;99192.03;;;15.52;100.00
28167;BME280;15455;53.376;-6.262;2023-09-19T08:02:09;99190.31;;;15.51;100.00
28167;BME280;15455;53.376;-6.262;2023-09-19T08:05:01;99194.75;;;15.51;100.00
28167;BME280;15455;53.376;-6.262;2023-09-19T08:07:51;99218.31;;;15.52;100.00
28167;BME280;15455;53.376;-6.262;2023-09-19T08:10:38;99198.16;;;15.53;100.00
28167;BME280;15455;53.376;-6.262;2023-09-19T08:13:26;99206.59;;;15.59;100.00
28167;BME280;15455;53.376;-6.262;2023-09-19T08:16:12;99200.91;;;15.69;100.00
28167;BME280;15455;53.376;-6.262;2023-09-19T08:18:57;99195.06;;;15.81;100.00
28167;BME280;15455;53.376;-6.262;2023-09-19T08:21:43;99194.63;;;15.90;100.00
28167;BME280;15455;53.376;-6.262;2023-09-19T08:24:32;99188.91;;;16.00;100.00
28167;BME280;15455;53.376;-6.262;2023-09-19T08:27:19;99188.41;;;16.09;100.00
28167;BME280;15455;53.376;-6.262;2023-09-19T08:30:06;99168.63;;;16.19;100.00
28167;BME280;15455;53.376;-6.262;2023-09-19T08:32:57;99175.03;;;16.31;100.00
28167;BME280;15455;53.376;-6.262;2023-09-19T08:35:43;99158.66;;;16.42;100.00
28167;BME280;15455;53.376;-6.262;2023-09-19T08:38:31;99159.88;;;16.52;100.00
28167;BME280;15455;53.376;-6.262;2023-09-19T08:41:18;99129.75;;;16.58;100.00
28167;BME280;15455;53.376;-6.262;2023-09-19T08:44:04;99144.97;;;16.69;100.00
28167;BME280;15455;53.376;-6.262;2023-09-19T08:46:55;99147.13;;;16.78;100.00
28167;BME280;15455;53.376;-6.262;2023-09-19T08:52:41;99137.50;;;16.94;100.00
28167;BME280;15455;53.376;-6.262;2023-09-19T08:55:28;99152.03;;;17.01;100.00
28167;BME280;15455;53.376;-6.262;2023-09-19T08:58:16;99130.59;;;17.08;100.00
28167;BME280;15455;53.376;-6.262;2023-09-19T09:01:05;99151.50;;;17.11;100.00
28167;BME280;15455;53.376;-6.262;2023-09-19T09:03:53;99158.41;;;17.13;100.00
28167;BME280;15455;53.376;-6.262;2023-09-19T09:06:39;99169.72;;;17.15;100.00
28167;BME280;15455;53.376;-6.262;2023-09-19T09:09:28;99182.06;;;17.15;100.00
28167;BME280;15455;53.376;-6.262;2023-09-19T09:12:14;99195.56;;;17.09;100.00
28167;BME280;15455;53.376;-6.262;2023-09-19T09:15:01;99217.31;;;16.96;100.00
28167;BME280;15455;53.376;-6.262;2023-09-19T09:17:52;99217.00;;;16.85;100.00
28167;BME280;15455;53.376;-6.262;2023-09-19T09:20:41;99230.97;;;16.70;100.00
28167;BME280;15455;53.376;-6.262;2023-09-19T09:23:27;99233.75;;;16.66;100.00
28167;BME280;15455;53.376;-6.262;2023-09-19T09:26:17;99259.34;;;16.64;100.00
28167;BME280;15455;53.376;-6.262;2023-09-19T09:29:03;99258.72;;;16.59;100.00
28167;BME280;15455;53.376;-6.262;2023-09-19T09:31:48;99269.50;;;16.55;100.00
28167;BME280;15455;53.376;-6.262;2023-09-19T09:34:34;99273.22;;;16.50;100.00
28167;BME280;15455;53.376;-6.262;2023-09-19T09:37:20;99272.53;;;16.47;100.00
28167;BME280;15455;53.376;-6.262;2023-09-19T09:40:17;99277.06;;;16.43;100.00
28167;BME280;15455;53.376;-6.262;2023-09-19T09:43:02;99270.06;;;16.44;100.00
28167;BME280;15455;53.376;-6.262;2023-09-19T09:46:06;99269.56;;;16.53;100.00
28167;BME280;15455;53.376;-6.262;2023-09-19T09:49:04;99280.50;;;16.63;100.00
28167;BME280;15455;53.376;-6.262;2023-09-19T09:52:12;99286.84;;;16.76;100.00
28167;BME280;15455;53.376;-6.262;2023-09-19T09:55:04;99278.47;;;16.86;100.00
28167;BME280;15455;53.376;-6.262;2023-09-19T09:58:17;99287.72;;;16.94;100.00
28167;BME280;15455;53.376;-6.262;2023-09-19T10:01:09;99279.06;;;17.08;100.00
28167;BME280;15455;53.376;-6.262;2023-09-19T10:03:58;99283.22;;;17.12;100.00
28167;BME280;15455;53.376;-6.262;2023-09-19T10:06:46;99274.41;;;17.13;100.00
28167;BME280;15455;53.376;-6.262;2023-09-19T10:09:45;99268.25;;;17.13;100.00
28167;BME280;15455;53.376;-6.262;2023-09-19T10:12:31;99266.31;;;17.16;100.00
28167;BME280;15455;53.376;-6.262;2023-09-19T10:15:21;99271.59;;;17.16;100.00
28167;BME280;15455;53.376;-6.262;2023-09-19T10:18:07;99264.63;;;17.15;100.00
28167;BME280;15455;53.376;-6.262;2023-09-19T10:21:04;99255.41;;;17.07;100.00
28167;BME280;15455;53.376;-6.262;2023-09-19T10:23:52;99263.41;;;17.05;100.00
28167;BME280;15455;53.376;-6.262;2023-09-19T10:26:41;99270.22;;;17.09;100.00
28167;BME280;15455;53.376;-6.262;2023-09-19T10:29:29;99271.94;;;17.10;100.00
28167;BME280;15455;53.376;-6.262;2023-09-19T10:32:18;99270.97;;;17.11;100.00
28167;BME280;15455;53.376;-6.262;2023-09-19T10:35:05;99270.75;;;17.16;100.00
28167;BME280;15455;53.376;-6.262;2023-09-19T10:37:54;99272.13;;;17.23;100.00
28167;BME280;15455;53.376;-6.262;2023-09-19T10:40:42;99269.06;;;17.31;100.00
28167;BME280;15455;53.376;-6.262;2023-09-19T10:43:31;99245.53;;;17.44;100.00
28167;BME280;15455;53.376;-6.262;2023-09-19T10:46:21;99242.19;;;17.56;100.00
28167;BME280;15455;53.376;-6.262;2023-09-19T10:49:06;99249.69;;;17.64;100.00
28167;BME280;15455;53.376;-6.262;2023-09-19T10:51:59;99236.22;;;17.68;100.00
28167;BME280;15455;53.376;-6.262;2023-09-19T10:54:50;99256.56;;;17.66;100.00
28167;BME280;15455;53.376;-6.262;2023-09-19T10:57:37;99256.06;;;17.60;100.00
28167;BME280;15455;53.376;-6.262;2023-09-19T11:00:23;99272.75;;;17.60;100.00
28167;BME280;15455;53.376;-6.262;2023-09-19T11:06:03;99286.44;;;17.35;100.00
28167;BME280;15455;53.376;-6.262;2023-09-19T11:09:00;99279.78;;;17.28;100.00
28167;BME280;15455;53.376;-6.262;2023-09-19T11:12:02;99298.81;;;17.17;100.00
28167;BME280;15455;53.376;-6.262;2023-09-19T11:14:48;99305.41;;;17.08;100.00
28167;BME280;15455;53.376;-6.262;2023-09-19T11:17:35;99303.03;;;17.04;100.00
28167;BME280;15455;53.376;-6.262;2023-09-19T11:20:23;99318.84;;;17.04;100.00
28167;BME280;15455;53.376;-6.262;2023-09-19T11:23:21;99315.50;;;17.00;100.00
28167;BME280;15455;53.376;-6.262;2023-09-19T11:27:08;99297.28;;;16.95;100.00
28167;BME280;15455;53.376;-6.262;2023-09-19T11:29:40;99306.59;;;17.02;100.00
28167;BME280;15455;53.376;-6.262;2023-09-19T11:33:31;99306.72;;;17.17;100.00
28167;BME280;15455;53.376;-6.262;2023-09-19T11:36:04;99309.19;;;17.20;100.00
28167;BME280;15455;53.376;-6.262;2023-09-19T11:41:36;99299.88;;;17.30;100.00
28167;BME280;15455;53.376;-6.262;2023-09-19T11:47:12;99295.28;;;17.50;100.00
28167;BME280;15455;53.376;-6.262;2023-09-19T11:50:01;99283.56;;;17.56;100.00
28167;BME280;15455;53.376;-6.262;2023-09-19T11:52:47;99285.34;;;17.71;100.00
28167;BME280;15455;53.376;-6.262;2023-09-19T11:55:36;99275.63;;;17.87;100.00
28167;BME280;15455;53.376;-6.262;2023-09-19T11:58:24;99260.50;;;18.07;100.00
28167;BME280;15455;53.376;-6.262;2023-09-19T12:01:23;99246.88;;;18.29;100.00
28167;BME280;15455;53.376;-6.262;2023-09-19T12:04:11;99259.94;;;18.47;100.00
28167;BME280;15455;53.376;-6.262;2023-09-19T12:06:57;99212.38;;;18.47;100.00
28167;BME280;15455;53.376;-6.262;2023-09-19T12:10:01;99187.00;;;18.44;100.00
28167;BME280;15455;53.376;-6.262;2023-09-19T12:12:48;99204.56;;;18.60;100.00
28167;BME280;15455;53.376;-6.262;2023-09-19T12:15:38;99183.53;;;18.58;100.00
28167;BME280;15455;53.376;-6.262;2023-09-19T12:18:29;99179.47;;;18.67;100.00
28167;BME280;15455;53.376;-6.262;2023-09-19T12:21:31;99186.00;;;18.75;100.00
28167;BME280;15455;53.376;-6.262;2023-09-19T12:24:16;99192.13;;;18.90;100.00
28167;BME280;15455;53.376;-6.262;2023-09-19T12:27:06;99179.47;;;18.81;100.00
28167;BME280;15455;53.376;-6.262;2023-09-19T12:29:52;99181.28;;;18.66;100.00
28167;BME280;15455;53.376;-6.262;2023-09-19T12:32:54;99182.50;;;18.61;100.00
28167;BME280;15455;53.376;-6.262;2023-09-19T12:35:41;99194.47;;;18.37;100.00
28167;BME280;15455;53.376;-6.262;2023-09-19T12:38:30;99222.38;;;18.11;100.00
28167;BME280;15455;53.376;-6.262;2023-09-19T12:41:21;99218.00;;;17.96;100.00
28167;BME280;15455;53.376;-6.262;2023-09-19T12:44:10;99259.66;;;17.91;100.00
28167;BME280;15455;53.376;-6.262;2023-09-19T12:46:58;99270.91;;;17.94;100.00
28167;BME280;15455;53.376;-6.262;2023-09-19T12:50:16;99275.53;;;18.05;100.00
28167;BME280;15455;53.376;-6.262;2023-09-19T12:53:24;99256.38;;;18.17;100.00
28167;BME280;15455;53.376;-6.262;2023-09-19T12:56:12;99253.78;;;18.32;100.00
28167;BME280;15455;53.376;-6.262;2023-09-19T12:58:59;99247.66;;;18.46;100.00
28167;BME280;15455;53.376;-6.262;2023-09-19T13:02:03;99235.88;;;18.51;100.00
28167;BME280;15455;53.376;-6.262;2023-09-19T13:04:53;99226.84;;;18.55;100.00
28167;BME280;15455;53.376;-6.262;2023-09-19T13:07:40;99234.53;;;18.44;100.00
28167;BME280;15455;53.376;-6.262;2023-09-19T13:10:28;99247.63;;;18.31;100.00
28167;BME280;15455;53.376;-6.262;2023-09-19T13:13:23;99257.16;;;18.03;100.00
28167;BME280;15455;53.376;-6.262;2023-09-19T13:16:13;99279.66;;;17.95;100.00
28167;BME280;15455;53.376;-6.262;2023-09-19T13:19:07;99303.41;;;17.95;100.00
28167;BME280;15455;53.376;-6.262;2023-09-19T13:21:52;99297.75;;;17.85;100.00
28167;BME280;15455;53.376;-6.262;2023-09-19T13:24:41;99298.03;;;17.80;100.00
28167;BME280;15455;53.376;-6.262;2023-09-19T13:27:27;99302.88;;;17.88;100.00
28167;BME280;15455;53.376;-6.262;2023-09-19T13:30:14;99289.19;;;17.97;100.00
28167;BME280;15455;53.376;-6.262;2023-09-19T13:33:09;99310.56;;;17.93;100.00
28167;BME280;15455;53.376;-6.262;2023-09-19T13:35:56;99289.69;;;18.04;100.00
28167;BME280;15455;53.376;-6.262;2023-09-19T13:38:42;99289.50;;;18.23;100.00
28167;BME280;15455;53.376;-6.262;2023-09-19T13:41:32;99280.97;;;18.18;100.00
28167;BME280;15455;53.376;-6.262;2023-09-19T13:44:17;99263.84;;;18.25;100.00
28167;BME280;15455;53.376;-6.262;2023-09-19T13:47:03;99251.97;;;18.32;100.00
28167;BME280;15455;53.376;-6.262;2023-09-19T13:49:54;99255.94;;;18.70;100.00
28167;BME280;15455;53.376;-6.262;2023-09-19T13:52:40;99236.34;;;19.17;100.00
28167;BME280;15455;53.376;-6.262;2023-09-19T13:55:25;99230.66;;;19.65;100.00
28167;BME280;15455;53.376;-6.262;2023-09-19T13:58:11;99197.78;;;19.97;100.00
28167;BME280;15455;53.376;-6.262;2023-09-19T14:00:58;99176.16;;;19.75;100.00
28167;BME280;15455;53.376;-6.262;2023-09-19T14:03:44;99184.72;;;19.39;100.00
28167;BME280;15455;53.376;-6.262;2023-09-19T14:06:32;99192.75;;;19.37;100.00
28167;BME280;15455;53.376;-6.262;2023-09-19T14:09:18;99169.34;;;19.31;100.00
28167;BME280;15455;53.376;-6.262;2023-09-19T14:12:05;99163.75;;;19.36;100.00
28167;BME280;15455;53.376;-6.262;2023-09-19T14:14:50;99163.75;;;19.36;100.00
28167;BME280;15455;53.376;-6.262;2023-09-19T14:17:37;99171.69;;;19.36;100.00
28167;BME280;15455;53.376;-6.262;2023-09-19T14:20:23;99184.66;;;19.26;100.00
28167;BME280;15455;53.376;-6.262;2023-09-19T14:23:09;99166.72;;;19.17;100.00
28167;BME280;15455;53.376;-6.262;2023-09-19T14:25:55;99184.94;;;19.21;100.00
28167;BME280;15455;53.376;-6.262;2023-09-19T14:28:40;99167.41;;;19.48;100.00
28167;BME280;15455;53.376;-6.262;2023-09-19T14:31:26;99155.88;;;19.76;100.00
28167;BME280;15455;53.376;-6.262;2023-09-19T14:34:13;99148.50;;;19.94;100.00
28167;BME280;15455;53.376;-6.262;2023-09-19T14:37:00;99154.56;;;20.22;100.00
28167;BME280;15455;53.376;-6.262;2023-09-19T14:39:45;99135.63;;;20.28;100.00
28167;BME280;15455;53.376;-6.262;2023-09-19T14:42:31;99145.16;;;20.43;100.00
28167;BME280;15455;53.376;-6.262;2023-09-19T14:45:16;99136.97;;;20.34;100.00
28167;BME280;15455;53.376;-6.262;2023-09-19T14:48:04;99122.66;;;20.10;100.00
28167;BME280;15455;53.376;-6.262;2023-09-19T14:50:52;99129.63;;;19.86;100.00
28167;BME280;15455;53.376;-6.262;2023-09-19T14:53:38;99120.16;;;19.69;100.00
28167;BME280;15455;53.376;-6.262;2023-09-19T14:56:23;99111.31;;;19.55;100.00